createdAt,value
2016-12-22T00:01:53.805Z,95.460
2016-12-22T00:04:47.157Z,95.804
2016-12-22T00:07:42.218Z,95.962
2016-12-22T00:10:34.910Z,95.618
2016-12-22T00:13:29.057Z,95.800
2016-12-22T00:16:20.732Z,95.668
2016-12-22T00:19:14.026Z,95.864
2016-12-22T00:22:07.453Z,95.691
2016-12-22T00:25:02.808Z,95.808
2016-12-22T00:27:55.185Z,95.766
2016-12-22T00:30:47.809Z,95.821
2016-12-22T00:33:41.361Z,95.669
2016-12-22T00:36:36.301Z,95.590
2016-12-22T00:39:28.042Z,95.525
2016-12-22T00:42:21.456Z,95.883
2016-12-22T00:45:14.854Z,95.914
2016-12-22T00:48:08.106Z,95.443
2016-12-22T00:51:02.364Z,96.056
2016-12-22T00:53:54.650Z,96.046
2016-12-22T00:56:48.110Z,96.153
2016-12-22T00:59:41.521Z,95.838
2016-12-22T01:02:35.839Z,95.861
2016-12-22T01:05:29.923Z,95.792
2016-12-22T01:08:21.626Z,95.929
2016-12-22T01:11:14.883Z,96.044
2016-12-22T01:14:09.911Z,95.981
2016-12-22T01:17:01.668Z,96.181
2016-12-22T01:19:56.703Z,95.998
2016-12-22T01:22:49.205Z,96.144
2016-12-22T01:25:43.265Z,96.154
2016-12-22T01:28:35.876Z,96.141
2016-12-22T01:31:30.000Z,95.673
2016-12-22T01:34:21.605Z,95.866
2016-12-22T01:37:15.583Z,95.807
2016-12-22T01:40:08.291Z,95.714
2016-12-22T01:43:03.328Z,95.861
2016-12-22T01:45:54.917Z,95.574
2016-12-22T01:48:48.347Z,95.857
2016-12-22T01:51:41.573Z,95.701
2016-12-22T01:54:35.000Z,95.638
2016-12-22T01:57:28.473Z,95.862
2016-12-22T02:00:21.840Z,95.930
2016-12-22T02:03:16.796Z,95.913
2016-12-22T02:06:08.459Z,95.671
2016-12-22T02:09:01.741Z,95.745
2016-12-22T02:11:54.964Z,95.696
2016-12-22T02:14:48.345Z,95.592
2016-12-22T02:17:43.392Z,95.634
2016-12-22T02:20:34.941Z,95.625
2016-12-22T02:23:28.162Z,95.669
2016-12-22T02:26:24.215Z,95.943
2016-12-22T02:29:14.784Z,95.556
2016-12-22T02:32:08.252Z,96.161
2016-12-22T02:35:01.469Z,95.970
2016-12-22T02:37:54.803Z,95.700
2016-12-22T02:40:48.159Z,95.944
2016-12-22T02:43:41.452Z,95.642
2016-12-22T02:49:29.946Z,95.816
2016-12-22T02:52:21.559Z,95.800
2016-12-22T02:55:15.867Z,95.747
2016-12-22T02:58:09.147Z,95.621
2016-12-22T03:01:01.525Z,95.834
2016-12-22T03:03:54.893Z,95.977
2016-12-22T03:06:48.263Z,95.968
2016-12-22T03:09:41.820Z,96.292
2016-12-22T03:12:35.183Z,96.046
2016-12-22T03:15:30.287Z,96.240
2016-12-22T03:18:22.537Z,95.999
2016-12-22T03:21:17.332Z,96.311
2016-12-22T03:24:09.272Z,96.091
2016-12-22T03:27:02.528Z,95.951
2016-12-22T03:29:57.453Z,96.146
2016-12-22T03:32:50.206Z,96.166
2016-12-22T03:35:42.503Z,96.071
2016-12-22T03:38:35.728Z,96.035
2016-12-22T03:41:29.104Z,96.166
2016-12-22T03:44:24.254Z,95.980
2016-12-22T03:47:15.840Z,96.352
2016-12-22T03:50:09.146Z,96.029
2016-12-22T03:53:02.550Z,96.120
2016-12-22T03:55:55.821Z,96.145
2016-12-22T03:58:49.187Z,96.241
2016-12-22T04:01:42.524Z,96.438
2016-12-22T04:04:36.612Z,96.469
2016-12-22T04:07:30.965Z,96.391
2016-12-22T04:10:22.639Z,96.316
2016-12-22T04:13:16.009Z,96.335
2016-12-22T04:16:09.398Z,96.408
2016-12-22T04:19:04.323Z,96.342
2016-12-22T04:21:55.964Z,96.230
2016-12-22T04:24:49.237Z,96.326
2016-12-22T04:27:44.348Z,96.262
2016-12-22T04:30:35.917Z,96.625
2016-12-22T04:33:29.433Z,96.277
2016-12-22T04:36:24.409Z,96.398
2016-12-22T04:39:16.206Z,96.334
2016-12-22T04:42:11.356Z,96.305
2016-12-22T04:45:03.768Z,96.300
2016-12-22T04:47:56.300Z,96.478
2016-12-22T04:50:49.702Z,95.930
2016-12-22T04:53:44.679Z,96.383
2016-12-22T04:56:36.428Z,96.232
2016-12-22T04:59:29.704Z,96.220
2016-12-22T05:02:23.101Z,96.315
2016-12-22T05:05:16.631Z,95.970
2016-12-22T05:08:11.566Z,96.401
2016-12-22T05:11:03.292Z,96.342
2016-12-22T05:13:56.601Z,96.544
2016-12-22T05:16:49.980Z,96.194
2016-12-22T05:19:43.326Z,96.070
2016-12-22T05:22:38.373Z,96.301
2016-12-22T05:25:31.694Z,96.533
2016-12-22T05:28:23.287Z,96.216
2016-12-22T05:31:16.710Z,96.231
2016-12-22T05:34:10.033Z,96.373
2016-12-22T05:37:03.242Z,96.528
2016-12-22T05:39:56.581Z,96.294
2016-12-22T05:42:50.009Z,96.438
2016-12-22T05:45:43.442Z,96.253
2016-12-22T05:48:38.512Z,96.338
2016-12-22T05:51:30.196Z,96.336
2016-12-22T05:54:25.268Z,96.454
2016-12-22T05:57:16.901Z,96.463
2016-12-22T06:00:10.123Z,96.364
2016-12-22T06:03:03.441Z,96.587
2016-12-22T06:05:56.776Z,96.531
2016-12-22T06:08:50.739Z,96.568
2016-12-22T06:11:45.959Z,96.421
2016-12-22T06:17:29.934Z,96.656
2016-12-22T06:20:23.339Z,96.860
2016-12-22T06:23:16.699Z,96.329
2016-12-22T06:26:09.949Z,96.906
2016-12-22T06:29:03.141Z,96.805
2016-12-22T06:31:58.130Z,96.846
2016-12-22T06:34:52.060Z,96.690
2016-12-22T06:37:44.707Z,96.496
2016-12-22T06:40:37.721Z,96.827
2016-12-22T06:43:31.501Z,96.780
2016-12-22T06:46:23.813Z,96.646
2016-12-22T06:49:18.927Z,96.826
2016-12-22T06:52:11.207Z,96.791
2016-12-22T06:55:04.720Z,96.650
2016-12-22T06:57:57.094Z,96.673
2016-12-22T07:00:52.243Z,96.542
2016-12-22T07:03:46.481Z,96.759
2016-12-22T07:06:37.293Z,96.802
2016-12-22T07:09:30.560Z,96.649
2016-12-22T07:15:17.509Z,96.708
2016-12-22T07:18:10.543Z,96.729
2016-12-22T07:21:03.871Z,96.921
2016-12-22T07:23:57.202Z,97.115
2016-12-22T07:26:50.485Z,97.143
2016-12-22T07:29:44.458Z,97.104
2016-12-22T07:35:30.624Z,97.289
2016-12-22T07:38:24.025Z,97.165
2016-12-22T07:41:17.560Z,96.798
2016-12-22T07:44:11.144Z,96.738
2016-12-22T07:47:04.520Z,96.559
2016-12-22T07:49:58.522Z,96.428
2016-12-22T07:52:53.699Z,96.130
2016-12-22T07:55:46.380Z,96.099
2016-12-22T07:58:41.007Z,95.901
2016-12-22T08:01:32.821Z,95.603
2016-12-22T08:04:26.198Z,95.406
2016-12-22T08:07:19.641Z,95.418
2016-12-22T08:10:15.027Z,95.531
2016-12-22T08:13:08.580Z,95.260
2016-12-22T08:16:01.320Z,95.135
2016-12-22T08:18:53.739Z,94.979
2016-12-22T08:21:48.920Z,94.706
2016-12-22T08:24:42.269Z,94.706
2016-12-22T08:27:34.055Z,94.698
2016-12-22T08:30:29.206Z,94.551
2016-12-22T08:33:21.065Z,94.426
2016-12-22T08:36:14.573Z,94.262
2016-12-22T08:39:09.908Z,94.176
2016-12-22T08:42:01.597Z,93.843
2016-12-22T08:44:55.163Z,93.890
2016-12-22T08:47:48.658Z,93.943
2016-12-22T08:50:44.700Z,93.712
2016-12-22T08:53:37.399Z,93.689
2016-12-22T08:56:29.181Z,93.500
2016-12-22T08:59:22.704Z,93.133
2016-12-22T09:02:18.100Z,93.207
2016-12-22T09:05:09.696Z,93.352
2016-12-22T09:08:03.141Z,93.056
2016-12-22T09:10:56.684Z,92.858
2016-12-22T09:13:50.124Z,92.577
2016-12-22T09:16:45.443Z,92.444
2016-12-22T09:19:37.536Z,92.427
2016-12-22T09:22:31.074Z,92.500
2016-12-22T09:25:26.605Z,92.249
2016-12-22T09:28:18.342Z,92.283
2016-12-22T09:31:12.145Z,92.324
2016-12-22T09:34:05.663Z,92.052
2016-12-22T09:36:59.198Z,91.868
2016-12-22T09:39:52.679Z,92.158
2016-12-22T09:42:47.820Z,92.060
2016-12-22T09:45:41.557Z,91.985
2016-12-22T09:48:35.126Z,91.989
2016-12-22T09:51:28.632Z,91.777
2016-12-22T09:54:20.453Z,91.729
2016-12-22T09:57:13.983Z,91.875
2016-12-22T10:00:07.646Z,91.816
2016-12-22T10:03:01.231Z,91.646
2016-12-22T10:05:56.623Z,91.763
2016-12-22T10:08:48.533Z,91.645
2016-12-22T10:11:42.149Z,91.686
2016-12-22T10:14:37.628Z,90.872
2016-12-22T10:17:31.275Z,91.017
2016-12-22T10:20:23.092Z,91.081
2016-12-22T10:23:18.570Z,91.160
2016-12-22T10:26:12.087Z,90.996
2016-12-22T10:29:04.071Z,90.975
2016-12-22T10:31:59.426Z,91.025
2016-12-22T10:34:51.380Z,90.844
2016-12-22T10:37:44.988Z,90.419
2016-12-22T10:40:39.260Z,89.992
2016-12-22T10:43:32.277Z,90.759
2016-12-22T10:46:27.636Z,90.520
2016-12-22T10:49:19.461Z,90.342
2016-12-22T10:52:13.081Z,90.817
2016-12-22T10:55:08.380Z,90.239
2016-12-22T10:58:00.341Z,90.455
2016-12-22T11:00:55.678Z,89.687
2016-12-22T11:03:49.282Z,90.453
2016-12-22T11:06:41.248Z,89.947
2016-12-22T11:09:35.875Z,90.512
2016-12-22T11:12:28.422Z,89.985
2016-12-22T11:15:22.090Z,90.536
2016-12-22T11:18:15.736Z,90.599
2016-12-22T11:21:09.471Z,90.342
2016-12-22T11:24:04.019Z,90.228
2016-12-22T11:26:56.672Z,90.250
2016-12-22T11:29:50.811Z,90.205
2016-12-22T11:32:44.483Z,90.022
2016-12-22T11:35:38.169Z,90.483
2016-12-22T11:38:31.668Z,90.708
2016-12-22T11:41:25.239Z,90.224
2016-12-22T11:44:18.784Z,89.911
2016-12-22T11:47:12.321Z,90.065
2016-12-22T11:50:07.647Z,90.248
2016-12-22T11:52:59.634Z,89.890
2016-12-22T11:55:53.151Z,89.661
2016-12-22T11:58:48.453Z,89.549
2016-12-22T12:01:40.779Z,89.741
2016-12-22T12:04:34.484Z,89.753
2016-12-22T12:07:28.142Z,89.973
2016-12-22T12:10:21.686Z,89.315
2016-12-22T12:13:17.002Z,89.472
2016-12-22T12:16:09.011Z,89.332
2016-12-22T12:19:04.222Z,88.461
2016-12-22T12:21:56.359Z,89.356
2016-12-22T12:24:51.066Z,89.680
2016-12-22T12:27:43.771Z,89.410
2016-12-22T12:30:37.324Z,89.826
2016-12-22T12:33:31.051Z,89.268
2016-12-22T12:36:24.589Z,89.782
2016-12-22T12:39:19.944Z,89.613
2016-12-22T12:42:11.875Z,89.321
2016-12-22T12:45:05.562Z,89.335
2016-12-22T12:47:59.755Z,89.081
2016-12-22T12:50:53.981Z,89.442
2016-12-22T12:53:47.678Z,89.043
2016-12-22T12:56:41.363Z,89.143
2016-12-22T12:59:35.124Z,89.095
2016-12-22T13:02:28.769Z,88.930
2016-12-22T13:05:22.465Z,89.093
2016-12-22T13:08:16.082Z,89.959
2016-12-22T13:11:09.634Z,89.095
2016-12-22T13:14:03.341Z,90.189
2016-12-22T13:16:59.272Z,89.525
2016-12-22T13:19:51.277Z,89.515
2016-12-22T13:22:44.800Z,89.698
2016-12-22T13:25:38.360Z,90.214
2016-12-22T13:28:31.919Z,89.842
2016-12-22T13:31:25.593Z,90.116
2016-12-22T13:34:19.083Z,90.727
2016-12-22T13:37:12.735Z,90.646
2016-12-22T13:40:06.319Z,90.708
2016-12-22T13:42:59.912Z,90.542
2016-12-22T13:45:55.180Z,90.599
2016-12-22T13:48:47.103Z,90.623
2016-12-22T13:51:41.805Z,90.766
2016-12-22T13:54:34.434Z,91.256
2016-12-22T13:57:27.940Z,91.284
2016-12-22T14:00:21.670Z,91.197
2016-12-22T14:03:15.391Z,91.258
2016-12-22T14:06:08.948Z,91.310
2016-12-22T14:09:04.485Z,91.361
2016-12-22T14:11:56.374Z,91.506
2016-12-22T14:14:50.068Z,91.859
2016-12-22T14:17:43.701Z,92.103
2016-12-22T14:20:37.371Z,92.485
2016-12-22T14:23:30.974Z,92.602
2016-12-22T14:26:24.557Z,92.491
2016-12-22T14:29:18.215Z,92.582
2016-12-22T14:32:11.910Z,93.167
2016-12-22T14:35:07.240Z,93.506
2016-12-22T14:37:59.350Z,92.946
2016-12-22T14:40:53.033Z,92.831
2016-12-22T14:43:46.772Z,93.034
2016-12-22T14:46:40.418Z,93.343
2016-12-22T14:49:34.135Z,93.378
2016-12-22T14:52:29.682Z,93.263
2016-12-22T14:55:21.557Z,93.391
2016-12-22T14:58:16.885Z,93.600
2016-12-22T15:01:10.616Z,93.983
2016-12-22T15:04:02.769Z,93.988
2016-12-22T15:06:58.279Z,94.125
2016-12-22T15:09:51.733Z,94.662
2016-12-22T15:12:43.837Z,94.599
2016-12-22T15:15:37.409Z,94.782
2016-12-22T15:18:31.155Z,94.933
2016-12-22T15:21:26.571Z,94.656
2016-12-22T15:24:20.178Z,94.495
2016-12-22T15:27:12.550Z,94.718
2016-12-22T15:30:08.228Z,94.922
2016-12-22T15:33:00.177Z,95.295
2016-12-22T15:35:53.863Z,95.379
2016-12-22T15:38:47.622Z,95.585
2016-12-22T15:41:41.168Z,95.651
2016-12-22T15:44:34.868Z,95.716
2016-12-22T15:47:28.552Z,95.591
2016-12-22T15:50:22.238Z,95.423
2016-12-22T15:53:17.505Z,95.828
2016-12-22T15:56:11.205Z,96.013
2016-12-22T15:59:03.082Z,96.294
2016-12-22T16:01:56.738Z,96.288
2016-12-22T16:04:50.427Z,96.351
2016-12-22T16:07:46.346Z,96.102
2016-12-22T16:10:38.412Z,96.296
2016-12-22T16:13:31.997Z,96.079
2016-12-22T16:16:25.735Z,95.927
2016-12-22T16:19:19.485Z,95.592
2016-12-22T16:22:14.826Z,96.339
2016-12-22T16:25:08.515Z,96.482
2016-12-22T16:28:00.472Z,96.485
2016-12-22T16:30:53.899Z,96.360
2016-12-22T16:33:47.486Z,96.166
2016-12-22T16:36:41.183Z,96.405
2016-12-22T16:39:36.690Z,96.742
2016-12-22T16:42:30.313Z,96.751
2016-12-22T16:45:22.390Z,95.807
2016-12-22T16:48:16.120Z,96.846
2016-12-22T16:51:11.508Z,96.561
2016-12-22T16:54:03.473Z,96.481
2016-12-22T16:56:58.834Z,96.350
2016-12-22T16:59:51.246Z,96.356
2016-12-22T17:02:44.976Z,96.638
2016-12-22T17:05:38.710Z,97.266
2016-12-22T17:08:34.143Z,97.435
2016-12-22T17:11:26.019Z,97.558
2016-12-22T17:14:20.766Z,97.575
2016-12-22T17:17:15.275Z,97.243
2016-12-22T17:20:07.556Z,97.277
2016-12-22T17:23:01.212Z,97.430
2016-12-22T17:25:54.948Z,97.588
2016-12-22T17:28:50.301Z,97.767
2016-12-22T17:31:42.336Z,97.893
2016-12-22T17:34:35.908Z,97.813
2016-12-22T17:37:31.175Z,97.436
2016-12-22T17:40:23.139Z,96.423
2016-12-22T17:43:18.500Z,97.137
2016-12-22T17:46:12.248Z,97.556
2016-12-22T17:49:05.188Z,97.650
2016-12-22T17:51:57.701Z,97.409
2016-12-22T17:54:51.370Z,97.473
2016-12-22T17:57:46.784Z,97.743
2016-12-22T18:00:40.440Z,97.893
2016-12-22T18:03:32.424Z,97.951
2016-12-22T18:06:26.106Z,97.956
2016-12-22T18:09:19.901Z,97.949
2016-12-22T18:12:15.431Z,97.834
2016-12-22T18:15:07.367Z,97.738
2016-12-22T18:18:01.018Z,97.791
2016-12-22T18:20:54.655Z,97.744
2016-12-22T18:23:48.408Z,97.892
2016-12-22T18:26:42.031Z,97.803
2016-12-22T18:29:35.729Z,98.012
2016-12-22T18:32:29.482Z,97.951
2016-12-22T18:35:23.173Z,98.062
2016-12-22T18:38:17.373Z,98.095
2016-12-22T18:41:12.831Z,97.956
2016-12-22T18:44:06.619Z,97.835
2016-12-22T18:46:58.559Z,97.781
2016-12-22T18:49:52.218Z,97.554
2016-12-22T18:52:45.927Z,97.469
2016-12-22T18:55:39.641Z,97.683
2016-12-22T18:58:33.402Z,97.752
2016-12-22T19:01:28.649Z,97.828
2016-12-22T19:04:22.305Z,97.840
2016-12-22T19:07:14.319Z,97.979
2016-12-22T19:10:08.098Z,97.921
2016-12-22T19:13:01.775Z,97.938
2016-12-22T19:15:55.488Z,97.774
2016-12-22T19:18:49.234Z,97.987
2016-12-22T19:21:42.864Z,97.976
2016-12-22T19:24:38.331Z,97.832
2016-12-22T19:27:30.352Z,97.994
2016-12-22T19:30:24.088Z,98.055
2016-12-22T19:33:17.968Z,98.258
2016-12-22T19:36:11.603Z,98.201
2016-12-22T19:39:06.186Z,97.941
2016-12-22T19:41:59.112Z,97.872
2016-12-22T19:44:52.780Z,98.108
2016-12-22T19:47:48.173Z,98.135
2016-12-22T19:50:40.277Z,98.135
2016-12-22T19:53:33.803Z,97.881
2016-12-22T19:56:29.193Z,98.081
2016-12-22T19:59:21.172Z,98.060
2016-12-22T20:02:16.756Z,97.866
2016-12-22T20:05:10.253Z,97.927
2016-12-22T20:08:02.273Z,97.781
2016-12-22T20:10:58.678Z,97.866
2016-12-22T20:13:49.621Z,98.106
2016-12-22T20:16:43.205Z,97.927
2016-12-22T20:19:36.957Z,98.020
2016-12-22T20:22:30.715Z,98.051
2016-12-22T20:25:24.410Z,97.984
2016-12-22T20:28:18.061Z,97.976
2016-12-22T20:31:11.741Z,97.858
2016-12-22T20:34:07.111Z,98.012
2016-12-22T20:36:59.192Z,97.993
2016-12-22T20:39:52.897Z,97.875
2016-12-22T20:42:48.431Z,97.933
2016-12-22T20:45:40.384Z,97.967
2016-12-22T20:48:33.999Z,97.958
2016-12-22T20:51:27.696Z,97.985
2016-12-22T20:54:21.470Z,98.015
2016-12-22T20:57:16.850Z,97.998
2016-12-22T21:00:10.594Z,98.146
2016-12-22T21:03:04.322Z,98.230
2016-12-22T21:05:58.010Z,97.833
2016-12-22T21:08:51.039Z,98.091
2016-12-22T21:11:45.547Z,98.180
2016-12-22T21:14:37.414Z,97.957
2016-12-22T21:17:31.110Z,98.183
2016-12-22T21:20:26.589Z,98.210
2016-12-22T21:23:18.374Z,98.352
2016-12-22T21:26:12.166Z,98.130
2016-12-22T21:29:07.637Z,98.204
2016-12-22T21:31:59.543Z,98.469
2016-12-22T21:34:53.211Z,98.492
2016-12-22T21:37:46.904Z,98.551
2016-12-22T21:40:40.563Z,98.658
2016-12-22T21:43:36.041Z,98.564
2016-12-22T21:46:28.003Z,98.537
2016-12-22T21:49:21.878Z,98.661
2016-12-22T21:52:15.489Z,98.880
2016-12-22T21:55:09.269Z,98.861
2016-12-22T21:58:03.015Z,98.932
2016-12-22T22:00:56.672Z,98.797
2016-12-22T22:03:50.264Z,98.905
2016-12-22T22:06:43.998Z,98.763
2016-12-22T22:09:37.759Z,99.001
2016-12-22T22:12:31.264Z,98.892
2016-12-22T22:15:26.719Z,99.059
2016-12-22T22:18:18.693Z,99.124
2016-12-22T22:21:14.021Z,99.152
2016-12-22T22:24:07.757Z,99.124
2016-12-22T22:26:59.554Z,99.250
2016-12-22T22:29:53.281Z,99.321
2016-12-22T22:32:46.909Z,99.440
2016-12-22T22:35:40.850Z,99.221
2016-12-22T22:38:34.627Z,99.452
2016-12-22T22:41:28.353Z,99.564
2016-12-22T22:44:22.117Z,99.539
2016-12-22T22:47:15.805Z,99.389
2016-12-22T22:50:10.066Z,99.429
2016-12-22T22:53:03.694Z,99.564
2016-12-22T22:55:57.376Z,99.554
2016-12-22T22:58:52.916Z,99.653
2016-12-22T23:01:46.563Z,99.732
2016-12-22T23:04:38.840Z,99.564
2016-12-22T23:07:32.508Z,99.832
2016-12-22T23:10:26.184Z,99.883
2016-12-22T23:13:20.560Z,99.824
2016-12-22T23:16:13.607Z,99.970
2016-12-22T23:19:07.235Z,100.000
2016-12-22T23:22:01.286Z,100.000
2016-12-22T23:24:55.042Z,100.000
2016-12-22T23:27:48.869Z,100.000
2016-12-22T23:30:42.567Z,100.000
2016-12-22T23:33:36.268Z,100.000
2016-12-22T23:36:29.988Z,100.000
2016-12-22T23:39:23.693Z,100.000
2016-12-22T23:42:17.997Z,100.000
2016-12-22T23:45:11.675Z,100.000
2016-12-22T23:48:05.439Z,100.000
2016-12-22T23:50:59.110Z,100.000
2016-12-22T23:53:54.733Z,100.000
2016-12-22T23:56:46.679Z,100.000
2016-12-22T23:59:40.289Z,100.000
